sensor_id;sensor_type;location;lat;lon;timestamp;pressure;altitude;pressure_sealevel;temperature;humidity
48614;BME280;34408;51.426;5.444;2024-01-27T00:00:00;103454.41;;;7.95;59.75
48614;BME280;34408;51.426;5.444;2024-01-27T00:02:28;103457.22;;;7.93;59.85
48614;BME280;34408;51.426;5.444;2024-01-27T00:04:56;103449.31;;;7.92;59.77
48614;BME280;34408;51.426;5.444;2024-01-27T00:07:24;103446.78;;;7.90;60.01
48614;BME280;34408;51.426;5.444;2024-01-27T00:09:53;103443.25;;;7.90;60.19
48614;BME280;34408;51.426;5.444;2024-01-27T00:12:21;103439.75;;;7.89;59.98
48614;BME280;34408;51.426;5.444;2024-01-27T00:14:50;103434.53;;;7.88;59.34
48614;BME280;34408;51.426;5.444;2024-01-27T00:17:19;103430.31;;;7.85;59.49
48614;BME280;34408;51.426;5.444;2024-01-27T00:19:50;103435.66;;;7.85;58.92
48614;BME280;34408;51.426;5.444;2024-01-27T00:22:18;103411.69;;;7.74;59.56
48614;BME280;34408;51.426;5.444;2024-01-27T00:24:47;103427.06;;;7.81;60.07
48614;BME280;34408;51.426;5.444;2024-01-27T00:27:15;103428.19;;;7.79;59.58
48614;BME280;34408;51.426;5.444;2024-01-27T00:29:43;103435.38;;;7.78;60.07
48614;BME280;34408;51.426;5.444;2024-01-27T00:32:11;103433.81;;;7.76;59.05
48614;BME280;34408;51.426;5.444;2024-01-27T00:34:40;103430.28;;;7.75;60.00
48614;BME280;34408;51.426;5.444;2024-01-27T00:37:08;103441.84;;;7.76;59.36
48614;BME280;34408;51.426;5.444;2024-01-27T00:39:35;103442.00;;;7.74;59.00
48614;BME280;34408;51.426;5.444;2024-01-27T00:42:03;103449.16;;;7.74;59.45
48614;BME280;34408;51.426;5.444;2024-01-27T00:44:31;103446.63;;;7.72;59.86
48614;BME280;34408;51.426;5.444;2024-01-27T00:46:59;103454.81;;;7.71;59.72
48614;BME280;34408;51.426;5.444;2024-01-27T00:49:27;103449.03;;;7.66;59.91
48614;BME280;34408;51.426;5.444;2024-01-27T00:51:56;103450.72;;;7.67;59.76
48614;BME280;34408;51.426;5.444;2024-01-27T00:54:24;103455.22;;;7.66;59.72
48614;BME280;34408;51.426;5.444;2024-01-27T00:56:52;103454.38;;;7.66;60.18
48614;BME280;34408;51.426;5.444;2024-01-27T00:59:20;103456.34;;;7.64;59.55
48614;BME280;34408;51.426;5.444;2024-01-27T01:01:47;103457.31;;;7.63;59.02
48614;BME280;34408;51.426;5.444;2024-01-27T01:04:16;103453.81;;;7.62;58.93
48614;BME280;34408;51.426;5.444;2024-01-27T01:06:43;103461.97;;;7.61;59.94
48614;BME280;34408;51.426;5.444;2024-01-27T01:09:13;103455.78;;;7.60;60.33
48614;BME280;34408;51.426;5.444;2024-01-27T01:11:40;103456.91;;;7.58;59.49
48614;BME280;34408;51.426;5.444;2024-01-27T01:14:08;103467.59;;;7.58;60.16
48614;BME280;34408;51.426;5.444;2024-01-27T01:16:36;103464.22;;;7.56;59.95
48614;BME280;34408;51.426;5.444;2024-01-27T01:19:04;103464.22;;;7.56;59.81
48614;BME280;34408;51.426;5.444;2024-01-27T01:21:32;103461.69;;;7.54;59.45
48614;BME280;34408;51.426;5.444;2024-01-27T01:24:00;103467.03;;;7.54;59.16
48614;BME280;34408;51.426;5.444;2024-01-27T01:26:29;103468.16;;;7.51;59.74
48614;BME280;34408;51.426;5.444;2024-01-27T01:28:57;103467.31;;;7.51;59.75
48614;BME280;34408;51.426;5.444;2024-01-27T01:31:25;103466.59;;;7.49;60.17
48614;BME280;34408;51.426;5.444;2024-01-27T01:33:53;103456.88;;;7.48;59.75
48614;BME280;34408;51.426;5.444;2024-01-27T01:36:21;103454.47;;;7.45;60.04
48614;BME280;34408;51.426;5.444;2024-01-27T01:38:49;103461.50;;;7.46;59.68
48614;BME280;34408;51.426;5.444;2024-01-27T01:41:16;103461.66;;;7.44;59.68
48614;BME280;34408;51.426;5.444;2024-01-27T01:43:46;103463.63;;;7.42;59.81
48614;BME280;34408;51.426;5.444;2024-01-27T01:46:13;103465.44;;;7.42;59.81
48614;BME280;34408;51.426;5.444;2024-01-27T01:48:42;103463.75;;;7.41;59.44
48614;BME280;34408;51.426;5.444;2024-01-27T01:51:10;103455.88;;;7.39;59.83
48614;BME280;34408;51.426;5.444;2024-01-27T01:53:38;103465.72;;;7.39;59.23
48614;BME280;34408;51.426;5.444;2024-01-27T01:56:06;103471.22;;;7.37;59.92
48614;BME280;34408;51.426;5.444;2024-01-27T01:58:35;103473.88;;;7.37;59.25
48614;BME280;34408;51.426;5.444;2024-01-27T02:01:04;103472.47;;;7.33;59.68
48614;BME280;34408;51.426;5.444;2024-01-27T02:03:32;103466.97;;;7.35;60.04
48614;BME280;34408;51.426;5.444;2024-01-27T02:06:00;103471.63;;;7.33;59.25
48614;BME280;34408;51.426;5.444;2024-01-27T02:08:28;103474.44;;;7.31;59.64
48614;BME280;34408;51.426;5.444;2024-01-27T02:10:56;103470.06;;;7.30;59.20
48614;BME280;34408;51.426;5.444;2024-01-27T02:13:24;103461.19;;;7.30;59.57
48614;BME280;34408;51.426;5.444;2024-01-27T02:15:53;103467.38;;;7.30;59.86
48614;BME280;34408;51.426;5.444;2024-01-27T02:18:23;103468.38;;;7.29;58.88
48614;BME280;34408;51.426;5.444;2024-01-27T02:20:51;103468.38;;;7.29;59.29
48614;BME280;34408;51.426;5.444;2024-01-27T02:23:19;103470.19;;;7.29;59.65
48614;BME280;34408;51.426;5.444;2024-01-27T02:25:48;103456.94;;;7.17;59.23
48614;BME280;34408;51.426;5.444;2024-01-27T02:28:16;103477.50;;;7.27;59.61
48614;BME280;34408;51.426;5.444;2024-01-27T02:30:44;103477.66;;;7.25;59.03
48614;BME280;34408;51.426;5.444;2024-01-27T02:33:12;103480.47;;;7.24;59.19
48614;BME280;34408;51.426;5.444;2024-01-27T02:35:40;103486.66;;;7.24;59.95
48614;BME280;34408;51.426;5.444;2024-01-27T02:38:10;103473.56;;;7.21;59.54
48614;BME280;34408;51.426;5.444;2024-01-27T02:40:37;103478.75;;;7.23;58.93
48614;BME280;34408;51.426;5.444;2024-01-27T02:43:06;103479.75;;;7.22;59.30
48614;BME280;34408;51.426;5.444;2024-01-27T02:45:34;103474.53;;;7.20;58.71
48614;BME280;34408;51.426;5.444;2024-01-27T02:48:02;103477.22;;;7.20;59.00
48614;BME280;34408;51.426;5.444;2024-01-27T02:50:30;103476.50;;;7.18;59.94
48614;BME280;34408;51.426;5.444;2024-01-27T02:52:58;103481.00;;;7.17;58.92
48614;BME280;34408;51.426;5.444;2024-01-27T02:55:26;103473.09;;;7.16;59.13
48614;BME280;34408;51.426;5.444;2024-01-27T02:57:54;103481.25;;;7.14;59.21
48614;BME280;34408;51.426;5.444;2024-01-27T03:00:23;103473.25;;;7.14;59.79
48614;BME280;34408;51.426;5.444;2024-01-27T03:02:51;103468.88;;;7.13;58.90
48614;BME280;34408;51.426;5.444;2024-01-27T03:05:19;103477.75;;;7.14;59.76
48614;BME280;34408;51.426;5.444;2024-01-27T03:07:46;103476.19;;;7.11;59.12
48614;BME280;34408;51.426;5.444;2024-01-27T03:10:14;103473.66;;;7.10;59.60
48614;BME280;34408;51.426;5.444;2024-01-27T03:12:42;103474.75;;;7.07;59.56
48614;BME280;34408;51.426;5.444;2024-01-27T03:15:10;103477.44;;;7.07;58.97
48614;BME280;34408;51.426;5.444;2024-01-27T03:17:39;103473.06;;;7.06;59.98
48614;BME280;34408;51.426;5.444;2024-01-27T03:20:08;103470.53;;;7.05;59.20
48614;BME280;34408;51.426;5.444;2024-01-27T03:22:36;103485.72;;;7.04;59.03
48614;BME280;34408;51.426;5.444;2024-01-27T03:25:05;103474.19;;;7.04;59.59
48614;BME280;34408;51.426;5.444;2024-01-27T03:27:32;103471.78;;;7.01;59.19
48614;BME280;34408;51.426;5.444;2024-01-27T03:30:01;103474.13;;;6.94;59.58
48614;BME280;34408;51.426;5.444;2024-01-27T03:32:30;103483.59;;;6.98;59.78
48614;BME280;34408;51.426;5.444;2024-01-27T03:35:01;103470.78;;;6.92;59.28
48614;BME280;34408;51.426;5.444;2024-01-27T03:37:29;103487.25;;;6.97;59.51
48614;BME280;34408;51.426;5.444;2024-01-27T03:39:57;103481.03;;;6.97;59.69
48614;BME280;34408;51.426;5.444;2024-01-27T03:42:24;103483.72;;;6.97;58.86
48614;BME280;34408;51.426;5.444;2024-01-27T03:44:53;103488.34;;;6.95;59.11
48614;BME280;34408;51.426;5.444;2024-01-27T03:47:20;103490.19;;;6.94;58.90
48614;BME280;34408;51.426;5.444;2024-01-27T03:49:48;103491.03;;;6.95;59.00
48614;BME280;34408;51.426;5.444;2024-01-27T03:52:18;103482.16;;;6.94;59.76
48614;BME280;34408;51.426;5.444;2024-01-27T03:54:45;103476.97;;;6.93;59.83
48614;BME280;34408;51.426;5.444;2024-01-27T03:57:13;103486.81;;;6.92;59.45
48614;BME280;34408;51.426;5.444;2024-01-27T03:59:41;103467.25;;;6.92;59.38
48614;BME280;34408;51.426;5.444;2024-01-27T04:02:09;103475.41;;;6.90;59.34
48614;BME280;34408;51.426;5.444;2024-01-27T04:04:36;103480.91;;;6.89;59.49
48614;BME280;34408;51.426;5.444;2024-01-27T04:07:05;103483.69;;;6.87;59.35
48614;BME280;34408;51.426;5.444;2024-01-27T04:09:34;103483.00;;;6.85;59.52
48614;BME280;34408;51.426;5.444;2024-01-27T04:12:03;103489.19;;;6.85;59.38
48614;BME280;34408;51.426;5.444;2024-01-27T04:14:31;103494.66;;;6.84;59.30
48614;BME280;34408;51.426;5.444;2024-01-27T04:16:59;103483.13;;;6.83;59.71
48614;BME280;34408;51.426;5.444;2024-01-27T04:19:26;103485.06;;;6.81;59.63
48614;BME280;34408;51.426;5.444;2024-01-27T04:21:54;103489.56;;;6.81;59.84
48614;BME280;34408;51.426;5.444;2024-01-27T04:24:22;103490.44;;;6.81;60.22
48614;BME280;34408;51.426;5.444;2024-01-27T04:26:51;103492.25;;;6.81;59.78
48614;BME280;34408;51.426;5.444;2024-01-27T04:29:19;103491.41;;;6.80;59.59
48614;BME280;34408;51.426;5.444;2024-01-27T04:31:47;103496.88;;;6.79;59.05
48614;BME280;34408;51.426;5.444;2024-01-27T04:34:15;103495.19;;;6.78;59.80
48614;BME280;34408;51.426;5.444;2024-01-27T04:36:43;103502.50;;;6.76;59.55
48614;BME280;34408;51.426;5.444;2024-01-27T04:39:11;103496.31;;;6.75;59.27
48614;BME280;34408;51.426;5.444;2024-01-27T04:41:41;103493.75;;;6.74;59.42
48614;BME280;34408;51.426;5.444;2024-01-27T04:44:11;103505.28;;;6.74;59.62
48614;BME280;34408;51.426;5.444;2024-01-27T04:46:39;103491.94;;;6.74;59.70
48614;BME280;34408;51.426;5.444;2024-01-27T04:49:06;103489.38;;;6.73;60.05
48614;BME280;34408;51.426;5.444;2024-01-27T04:51:34;103487.69;;;6.72;59.76
48614;BME280;34408;51.426;5.444;2024-01-27T04:54:02;103484.31;;;6.70;59.96
48614;BME280;34408;51.426;5.444;2024-01-27T04:56:30;103495.13;;;6.68;59.97
48614;BME280;34408;51.426;5.444;2024-01-27T04:58:58;103493.31;;;6.69;59.85
48614;BME280;34408;51.426;5.444;2024-01-27T05:01:27;103493.44;;;6.67;59.74
48614;BME280;34408;51.426;5.444;2024-01-27T05:03:55;103496.97;;;6.68;59.24
48614;BME280;34408;51.426;5.444;2024-01-27T05:06:23;103492.59;;;6.67;60.01
48614;BME280;34408;51.426;5.444;2024-01-27T05:08:51;103491.88;;;6.65;59.42
48614;BME280;34408;51.426;5.444;2024-01-27T05:11:25;103499.75;;;6.66;59.08
48614;BME280;34408;51.426;5.444;2024-01-27T05:13:53;103469.31;;;6.58;59.41
48614;BME280;34408;51.426;5.444;2024-01-27T05:16:21;103493.56;;;6.66;59.36
48614;BME280;34408;51.426;5.444;2024-01-27T05:18:50;103483.84;;;6.65;59.61
48614;BME280;34408;51.426;5.444;2024-01-27T05:21:18;103483.84;;;6.65;60.13
48614;BME280;34408;51.426;5.444;2024-01-27T05:23:46;103499.03;;;6.64;59.68
48614;BME280;34408;51.426;5.444;2024-01-27T05:26:14;103471.41;;;6.54;59.85
48614;BME280;34408;51.426;5.444;2024-01-27T05:28:42;103492.84;;;6.64;59.80
48614;BME280;34408;51.426;5.444;2024-01-27T05:31:10;103502.56;;;6.65;60.06
48614;BME280;34408;51.426;5.444;2024-01-27T05:33:38;103490.69;;;6.58;60.34
48614;BME280;34408;51.426;5.444;2024-01-27T05:36:08;103488.88;;;6.58;59.98
48614;BME280;34408;51.426;5.444;2024-01-27T05:38:35;103486.06;;;6.60;59.95
48614;BME280;34408;51.426;5.444;2024-01-27T05:41:03;103491.41;;;6.60;59.67
48614;BME280;34408;51.426;5.444;2024-01-27T05:43:31;103482.56;;;6.59;60.05
48614;BME280;34408;51.426;5.444;2024-01-27T05:45:59;103483.53;;;6.58;59.87
48614;BME280;34408;51.426;5.444;2024-01-27T05:48:27;103472.97;;;6.57;60.05
48614;BME280;34408;51.426;5.444;2024-01-27T05:50:56;103470.56;;;6.53;60.07
48614;BME280;34408;51.426;5.444;2024-01-27T05:53:26;103472.25;;;6.55;60.16
48614;BME280;34408;51.426;5.444;2024-01-27T05:55:55;103470.56;;;6.53;59.65
48614;BME280;34408;51.426;5.444;2024-01-27T05:58:23;103474.22;;;6.52;59.76
48614;BME280;34408;51.426;5.444;2024-01-27T06:00:51;103477.00;;;6.51;59.95
48614;BME280;34408;51.426;5.444;2024-01-27T06:03:19;103482.38;;;6.51;60.01
48614;BME280;34408;51.426;5.444;2024-01-27T06:05:47;103468.41;;;6.47;59.99
48614;BME280;34408;51.426;5.444;2024-01-27T06:08:15;103475.44;;;6.48;59.71
48614;BME280;34408;51.426;5.444;2024-01-27T06:10:45;103482.63;;;6.48;59.92
48614;BME280;34408;51.426;5.444;2024-01-27T06:13:13;103466.72;;;6.46;60.36
48614;BME280;34408;51.426;5.444;2024-01-27T06:15:41;103466.72;;;6.46;59.92
48614;BME280;34408;51.426;5.444;2024-01-27T06:18:09;103467.69;;;6.45;59.80
48614;BME280;34408;51.426;5.444;2024-01-27T06:20:37;103475.72;;;6.45;60.17
48614;BME280;34408;51.426;5.444;2024-01-27T06:23:06;103481.19;;;6.44;59.69
48614;BME280;34408;51.426;5.444;2024-01-27T06:25:34;103479.38;;;6.44;59.68
48614;BME280;34408;51.426;5.444;2024-01-27T06:28:03;103476.81;;;6.43;60.18
48614;BME280;34408;51.426;5.444;2024-01-27T06:30:31;103485.81;;;6.42;60.05
48614;BME280;34408;51.426;5.444;2024-01-27T06:32:59;103483.13;;;6.42;59.45
48614;BME280;34408;51.426;5.444;2024-01-27T06:35:27;103492.97;;;6.41;60.49
48614;BME280;34408;51.426;5.444;2024-01-27T06:37:55;103487.50;;;6.43;60.08
48614;BME280;34408;51.426;5.444;2024-01-27T06:40:23;103480.16;;;6.56;59.71
48614;BME280;34408;51.426;5.444;2024-01-27T06:42:51;103491.47;;;6.69;59.18
48614;BME280;34408;51.426;5.444;2024-01-27T06:45:20;103486.50;;;6.85;58.54
48614;BME280;34408;51.426;5.444;2024-01-27T06:47:48;103487.94;;;6.99;58.15
48614;BME280;34408;51.426;5.444;2024-01-27T06:50:15;103489.25;;;7.05;57.92
48614;BME280;34408;51.426;5.444;2024-01-27T06:52:43;103492.91;;;7.04;58.15
48614;BME280;34408;51.426;5.444;2024-01-27T06:55:12;103501.31;;;6.99;57.67
48614;BME280;34408;51.426;5.444;2024-01-27T06:57:40;103500.03;;;6.94;58.15
48614;BME280;34408;51.426;5.444;2024-01-27T07:00:08;103517.34;;;6.90;58.23
48614;BME280;34408;51.426;5.444;2024-01-27T07:02:42;103520.66;;;6.82;58.29
48614;BME280;34408;51.426;5.444;2024-01-27T07:05:10;103520.47;;;6.74;58.89
48614;BME280;34408;51.426;5.444;2024-01-27T07:07:38;103525.50;;;6.67;59.22
48614;BME280;34408;51.426;5.444;2024-01-27T07:10:07;103525.19;;;6.61;59.32
48614;BME280;34408;51.426;5.444;2024-01-27T07:12:35;103520.09;;;6.58;59.40
48614;BME280;34408;51.426;5.444;2024-01-27T07:15:04;103534.44;;;6.57;58.72
48614;BME280;34408;51.426;5.444;2024-01-27T07:17:32;103530.19;;;6.54;59.01
48614;BME280;34408;51.426;5.444;2024-01-27T07:20:01;103528.50;;;6.53;59.16
48614;BME280;34408;51.426;5.444;2024-01-27T07:22:30;103530.56;;;6.49;59.18
48614;BME280;34408;51.426;5.444;2024-01-27T07:24:57;103532.41;;;6.49;59.82
48614;BME280;34408;51.426;5.444;2024-01-27T07:27:25;103546.88;;;6.46;59.78
48614;BME280;34408;51.426;5.444;2024-01-27T07:29:53;103547.13;;;6.43;59.79
48614;BME280;34408;51.426;5.444;2024-01-27T07:32:21;103545.44;;;6.42;59.89
48614;BME280;34408;51.426;5.444;2024-01-27T07:34:49;103539.38;;;6.40;59.86
48614;BME280;34408;51.426;5.444;2024-01-27T07:37:18;103544.00;;;6.38;59.54
48614;BME280;34408;51.426;5.444;2024-01-27T07:39:47;103542.41;;;6.36;60.05
48614;BME280;34408;51.426;5.444;2024-01-27T07:42:15;103539.03;;;6.34;59.90
48614;BME280;34408;51.426;5.444;2024-01-27T07:44:43;103539.16;;;6.32;59.66
48614;BME280;34408;51.426;5.444;2024-01-27T07:47:11;103542.41;;;6.36;59.58
48614;BME280;34408;51.426;5.444;2024-01-27T07:49:39;103537.75;;;6.49;59.52
48614;BME280;34408;51.426;5.444;2024-01-27T07:52:07;103549.94;;;6.63;58.80
48614;BME280;34408;51.426;5.444;2024-01-27T07:54:36;103548.25;;;6.82;58.63
48614;BME280;34408;51.426;5.444;2024-01-27T07:57:06;103547.63;;;7.00;58.42
48614;BME280;34408;51.426;5.444;2024-01-27T07:59:34;103543.50;;;7.16;57.83
48614;BME280;34408;51.426;5.444;2024-01-27T08:02:02;103553.69;;;7.32;57.14
48614;BME280;34408;51.426;5.444;2024-01-27T08:04:30;103548.00;;;7.46;56.54
48614;BME280;34408;51.426;5.444;2024-01-27T08:06:58;103545.81;;;7.31;55.95
48614;BME280;34408;51.426;5.444;2024-01-27T08:09:32;103536.94;;;7.30;56.41
48614;BME280;34408;51.426;5.444;2024-01-27T08:12:02;103530.78;;;7.39;55.97
48614;BME280;34408;51.426;5.444;2024-01-27T08:14:30;103523.59;;;7.40;56.45
48614;BME280;34408;51.426;5.444;2024-01-27T08:16:58;103531.72;;;7.29;56.46
48614;BME280;34408;51.426;5.444;2024-01-27T08:19:26;103520.22;;;7.07;57.56
48614;BME280;34408;51.426;5.444;2024-01-27T08:21:54;103535.56;;;7.05;57.24
48614;BME280;34408;51.426;5.444;2024-01-27T08:24:22;103531.84;;;6.97;57.99
48614;BME280;34408;51.426;5.444;2024-01-27T08:26:50;103535.22;;;6.89;58.36
48614;BME280;34408;51.426;5.444;2024-01-27T08:29:19;103525.88;;;6.83;58.55
48614;BME280;34408;51.426;5.444;2024-01-27T08:31:47;103529.66;;;6.81;58.06
48614;BME280;34408;51.426;5.444;2024-01-27T08:34:15;103531.03;;;6.75;58.82
48614;BME280;34408;51.426;5.444;2024-01-27T08:36:43;103529.59;;;6.71;58.83
48614;BME280;34408;51.426;5.444;2024-01-27T08:39:11;103527.47;;;6.65;59.73
48614;BME280;34408;51.426;5.444;2024-01-27T08:41:39;103534.88;;;6.62;58.99
48614;BME280;34408;51.426;5.444;2024-01-27T08:44:07;103538.66;;;6.59;59.94
48614;BME280;34408;51.426;5.444;2024-01-27T08:46:36;103544.41;;;6.55;59.56
48614;BME280;34408;51.426;5.444;2024-01-27T08:49:04;103539.31;;;6.51;59.50
48614;BME280;34408;51.426;5.444;2024-01-27T08:51:32;103542.13;;;6.50;59.97
48614;BME280;34408;51.426;5.444;2024-01-27T08:54:01;103540.53;;;6.47;59.57
48614;BME280;34408;51.426;5.444;2024-01-27T08:56:29;103550.63;;;6.44;59.94
48614;BME280;34408;51.426;5.444;2024-01-27T08:58:57;103553.44;;;6.42;60.60
48614;BME280;34408;51.426;5.444;2024-01-27T09:01:25;103560.59;;;6.42;60.27
48614;BME280;34408;51.426;5.444;2024-01-27T09:03:55;103559.88;;;6.40;60.03
48614;BME280;34408;51.426;5.444;2024-01-27T09:06:23;103567.06;;;6.39;60.33
48614;BME280;34408;51.426;5.444;2024-01-27T09:08:51;103562.81;;;6.37;60.39
48614;BME280;34408;51.426;5.444;2024-01-27T09:11:18;103546.56;;;6.29;60.68
48614;BME280;34408;51.426;5.444;2024-01-27T09:13:48;103562.81;;;6.37;60.41
48614;BME280;34408;51.426;5.444;2024-01-27T09:16:18;103559.28;;;6.36;60.47
48614;BME280;34408;51.426;5.444;2024-01-27T09:18:46;103561.25;;;6.34;60.76
48614;BME280;34408;51.426;5.444;2024-01-27T09:21:18;103566.59;;;6.34;60.95
48614;BME280;34408;51.426;5.444;2024-01-27T09:23:49;103577.13;;;6.36;60.91
48614;BME280;34408;51.426;5.444;2024-01-27T09:26:17;103577.28;;;6.34;61.27
48614;BME280;34408;51.426;5.444;2024-01-27T09:28:45;103576.81;;;6.29;61.39
48614;BME280;34408;51.426;5.444;2024-01-27T09:31:21;103575.81;;;6.30;61.73
48614;BME280;34408;51.426;5.444;2024-01-27T09:33:50;103575.09;;;6.28;61.26
48614;BME280;34408;51.426;5.444;2024-01-27T09:36:22;103578.91;;;6.14;62.02
48614;BME280;34408;51.426;5.444;2024-01-27T09:38:50;103578.19;;;6.12;62.37
48614;BME280;34408;51.426;5.444;2024-01-27T09:41:19;103583.97;;;6.29;61.77
48614;BME280;34408;51.426;5.444;2024-01-27T09:43:47;103589.72;;;6.45;61.19
48614;BME280;34408;51.426;5.444;2024-01-27T09:46:16;103589.31;;;6.61;61.58
48614;BME280;34408;51.426;5.444;2024-01-27T09:48:44;103598.91;;;6.84;60.73
48614;BME280;34408;51.426;5.444;2024-01-27T09:51:13;103595.22;;;7.06;59.81
48614;BME280;34408;51.426;5.444;2024-01-27T09:53:42;103604.34;;;7.24;59.01
48614;BME280;34408;51.426;5.444;2024-01-27T09:56:11;103594.41;;;7.36;59.22
48614;BME280;34408;51.426;5.444;2024-01-27T09:58:45;103596.38;;;7.34;58.95
48614;BME280;34408;51.426;5.444;2024-01-27T10:01:16;103595.78;;;7.30;58.60
48614;BME280;34408;51.426;5.444;2024-01-27T10:03:46;103596.59;;;7.21;60.12
48614;BME280;34408;51.426;5.444;2024-01-27T10:06:14;103605.13;;;7.15;59.43
48614;BME280;34408;51.426;5.444;2024-01-27T10:08:51;103608.19;;;7.10;59.89
48614;BME280;34408;51.426;5.444;2024-01-27T10:11:21;103601.41;;;7.06;60.11
48614;BME280;34408;51.426;5.444;2024-01-27T10:13:54;103595.75;;;7.00;60.64
48614;BME280;34408;51.426;5.444;2024-01-27T10:16:25;103611.06;;;6.98;61.21
48614;BME280;34408;51.426;5.444;2024-01-27T10:19:00;103608.28;;;6.99;61.07
48614;BME280;34408;51.426;5.444;2024-01-27T10:21:29;103618.25;;;6.97;60.64
48614;BME280;34408;51.426;5.444;2024-01-27T10:23:59;103603.59;;;6.92;61.17
48614;BME280;34408;51.426;5.444;2024-01-27T10:26:30;103623.16;;;6.92;61.71
48614;BME280;34408;51.426;5.444;2024-01-27T10:28:58;103618.78;;;6.91;61.83
48614;BME280;34408;51.426;5.444;2024-01-27T10:31:27;103603.00;;;6.88;61.45
48614;BME280;34408;51.426;5.444;2024-01-27T10:33:55;103601.31;;;6.87;61.35
48614;BME280;34408;51.426;5.444;2024-01-27T10:36:24;103613.00;;;6.86;62.06
48614;BME280;34408;51.426;5.444;2024-01-27T10:38:52;103621.00;;;6.86;62.01
48614;BME280;34408;51.426;5.444;2024-01-27T10:41:24;103626.34;;;6.86;61.98
48614;BME280;34408;51.426;5.444;2024-01-27T10:43:53;103626.22;;;6.88;62.44
48614;BME280;34408;51.426;5.444;2024-01-27T10:46:22;103627.94;;;6.89;62.59
48614;BME280;34408;51.426;5.444;2024-01-27T10:48:53;103624.28;;;6.90;61.86
48614;BME280;34408;51.426;5.444;2024-01-27T10:51:24;103609.34;;;6.87;62.22
48614;BME280;34408;51.426;5.444;2024-01-27T10:54:01;103611.63;;;6.92;62.89
48614;BME280;34408;51.426;5.444;2024-01-27T10:56:31;103607.13;;;6.92;62.54
48614;BME280;34408;51.426;5.444;2024-01-27T10:59:00;103607.13;;;6.92;62.60
48614;BME280;34408;51.426;5.444;2024-01-27T11:01:29;103598.94;;;6.94;63.03
48614;BME280;34408;51.426;5.444;2024-01-27T11:03:59;103600.63;;;6.95;63.03
48614;BME280;34408;51.426;5.444;2024-01-27T11:06:28;103601.63;;;6.94;62.80
48614;BME280;34408;51.426;5.444;2024-01-27T11:08:57;103588.25;;;6.94;62.73
48614;BME280;34408;51.426;5.444;2024-01-27T11:11:27;103591.63;;;6.96;63.19
48614;BME280;34408;51.426;5.444;2024-01-27T11:13:56;103587.00;;;6.98;62.70
48614;BME280;34408;51.426;5.444;2024-01-27T11:16:25;103596.47;;;7.02;62.91
48614;BME280;34408;51.426;5.444;2024-01-27T11:18:54;103584.91;;;7.01;63.54
48614;BME280;34408;51.426;5.444;2024-01-27T11:21:22;103587.47;;;7.03;62.65
48614;BME280;34408;51.426;5.444;2024-01-27T11:23:50;103577.63;;;7.03;63.25
48614;BME280;34408;51.426;5.444;2024-01-27T11:26:20;103578.47;;;7.04;63.44
48614;BME280;34408;51.426;5.444;2024-01-27T11:28:47;103583.69;;;7.05;62.94
48614;BME280;34408;51.426;5.444;2024-01-27T11:31:18;103581.72;;;7.07;63.55
48614;BME280;34408;51.426;5.444;2024-01-27T11:33:48;103576.97;;;7.11;63.01
48614;BME280;34408;51.426;5.444;2024-01-27T11:36:20;103585.56;;;7.14;63.07
48614;BME280;34408;51.426;5.444;2024-01-27T11:38:50;103565.00;;;7.15;63.40
48614;BME280;34408;51.426;5.444;2024-01-27T11:41:25;103570.94;;;7.18;63.06
48614;BME280;34408;51.426;5.444;2024-01-27T11:43:53;103572.50;;;7.21;63.12
48614;BME280;34408;51.426;5.444;2024-01-27T11:46:22;103579.41;;;7.24;62.97
48614;BME280;34408;51.426;5.444;2024-01-27T11:48:50;103562.06;;;7.18;63.39
48614;BME280;34408;51.426;5.444;2024-01-27T11:51:19;103576.34;;;7.28;63.18
48614;BME280;34408;51.426;5.444;2024-01-27T11:53:47;103577.91;;;7.31;63.20
48614;BME280;34408;51.426;5.444;2024-01-27T11:56:14;103567.91;;;7.33;62.66
48614;BME280;34408;51.426;5.444;2024-01-27T11:58:49;103557.81;;;7.36;63.00
48614;BME280;34408;51.426;5.444;2024-01-27T12:01:17;103553.16;;;7.38;63.45
48614;BME280;34408;51.426;5.444;2024-01-27T12:03:47;103554.72;;;7.41;62.02
48614;BME280;34408;51.426;5.444;2024-01-27T12:06:16;103551.78;;;7.44;62.28
48614;BME280;34408;51.426;5.444;2024-01-27T12:08:47;103554.31;;;7.45;62.00
48614;BME280;34408;51.426;5.444;2024-01-27T12:11:16;103555.16;;;7.46;61.69
48614;BME280;34408;51.426;5.444;2024-01-27T12:13:50;103554.19;;;7.47;61.90
48614;BME280;34408;51.426;5.444;2024-01-27T12:16:19;103552.50;;;7.46;62.67
48614;BME280;34408;51.426;5.444;2024-01-27T12:18:52;103549.69;;;7.47;61.92
48614;BME280;34408;51.426;5.444;2024-01-27T12:21:21;103559.00;;;7.53;61.32
48614;BME280;34408;51.426;5.444;2024-01-27T12:23:51;103554.50;;;7.54;61.60
48614;BME280;34408;51.426;5.444;2024-01-27T12:26:20;103549.97;;;7.54;61.21
48614;BME280;34408;51.426;5.444;2024-01-27T12:28:49;103546.72;;;7.50;60.70
48614;BME280;34408;51.426;5.444;2024-01-27T12:31:17;103544.38;;;7.57;60.48
48614;BME280;34408;51.426;5.444;2024-01-27T12:33:50;103550.28;;;7.61;60.00
48614;BME280;34408;51.426;5.444;2024-01-27T12:36:19;103535.94;;;7.62;60.68
48614;BME280;34408;51.426;5.444;2024-01-27T12:38:53;103543.81;;;7.63;60.36
48614;BME280;34408;51.426;5.444;2024-01-27T12:41:22;103532.13;;;7.64;59.63
48614;BME280;34408;51.426;5.444;2024-01-27T12:43:49;103538.19;;;7.66;59.93
48614;BME280;34408;51.426;5.444;2024-01-27T12:46:17;103527.50;;;7.66;60.03
48614;BME280;34408;51.426;5.444;2024-01-27T12:48:45;103539.88;;;7.67;60.55
48614;BME280;34408;51.426;5.444;2024-01-27T12:51:15;103529.19;;;7.67;60.49
48614;BME280;34408;51.426;5.444;2024-01-27T12:53:43;103522.00;;;7.68;60.09
48614;BME280;34408;51.426;5.444;2024-01-27T12:56:12;103512.97;;;7.69;60.68
48614;BME280;34408;51.426;5.444;2024-01-27T12:58:41;103506.66;;;7.70;59.80
48614;BME280;34408;51.426;5.444;2024-01-27T13:01:09;103517.06;;;7.73;59.71
48614;BME280;34408;51.426;5.444;2024-01-27T13:03:37;103529.06;;;7.78;60.42
48614;BME280;34408;51.426;5.444;2024-01-27T13:06:11;103521.75;;;7.80;60.54